Fort Hamilton, New York
Current Conditions -  °F | °C
As of 7:51 AM on Thursday 27 Nov 2014 (Local Time) from KEWR Reporting Station
Overcast Overcast  
Wind Chill: 29°   Ceiling: 6000
Heat Index: 36°   Visibility: 10mi
Dew Point: 31°   Wind: 9mph
Humidity: 82%   Direction: 330°NNW
Pressure: 29.98"   Gusts: NA
Location:  40.6061°N, 74.0291°W
Report Text: KEWR 271251Z 33008KT 10SM FEW010 OVC060 02/M01 A2998 RMK AO2 SNE31 SLP152 P0000 T00221006 $
Loading
Personal Weather Stations






























Interactive Weather Map New forecast layout! Learn more

10-Day Weather Forecast

Advertisements
Track Severe Weather on mobile